createdAt,value
2018-04-29T00:02:11.817Z,11.57
2018-04-29T00:04:39.314Z,16.60
2018-04-29T00:07:06.789Z,18.03
2018-04-29T00:09:34.277Z,15.93
2018-04-29T00:12:01.737Z,16.07
2018-04-29T00:14:29.205Z,14.07
2018-04-29T00:16:56.664Z,15.07
2018-04-29T00:19:24.161Z,13.33
2018-04-29T00:21:51.623Z,14.50
2018-04-29T00:24:19.105Z,13.87
2018-04-29T00:26:46.583Z,15.00
2018-04-29T00:29:14.059Z,16.27
2018-04-29T00:31:42.282Z,13.90
2018-04-29T00:34:09.772Z,14.73
2018-04-29T00:36:37.248Z,14.83
2018-04-29T00:39:05.501Z,15.43
2018-04-29T00:41:32.996Z,16.50
2018-04-29T00:44:01.216Z,15.43
2018-04-29T00:46:28.857Z,17.60
2018-04-29T00:48:56.363Z,17.17
2018-04-29T00:51:35.665Z,19.63
2018-04-29T00:54:03.168Z,14.87
2018-04-29T00:56:31.391Z,17.60
2018-04-29T00:58:58.971Z,18.13
2018-04-29T01:01:26.354Z,18.27
2018-04-29T01:03:53.870Z,18.63
2018-04-29T01:06:21.346Z,19.73
2018-04-29T01:08:48.808Z,18.77
2018-04-29T01:11:16.315Z,18.40
2018-04-29T01:13:43.760Z,16.60
2018-04-29T01:16:11.249Z,17.17
2018-04-29T01:18:38.731Z,16.93
2018-04-29T01:21:06.212Z,16.90
2018-04-29T01:23:33.665Z,17.77
2018-04-29T01:26:01.143Z,20.17
2018-04-29T01:28:29.381Z,20.67
2018-04-29T01:30:56.861Z,19.93
2018-04-29T01:33:25.111Z,16.90
2018-04-29T01:35:52.596Z,15.87
2018-04-29T01:38:20.834Z,17.90
2018-04-29T01:40:48.328Z,17.33
2018-04-29T01:43:16.575Z,15.60
2018-04-29T01:45:44.064Z,19.63
2018-04-29T01:48:11.521Z,16.17
2018-04-29T01:50:39.002Z,18.13
2018-04-29T01:53:06.457Z,16.40
2018-04-29T01:55:33.943Z,19.13
2018-04-29T01:58:01.400Z,18.23
2018-04-29T02:00:29.623Z,15.60
2018-04-29T02:02:57.112Z,19.73
2018-04-29T02:05:24.592Z,15.03
2018-04-29T02:07:52.053Z,21.93
2018-04-29T02:10:19.554Z,17.83
2018-04-29T02:12:47.013Z,16.20
2018-04-29T02:15:14.478Z,17.40
2018-04-29T02:17:42.721Z,19.97
2018-04-29T02:20:10.205Z,17.87
2018-04-29T02:22:38.457Z,17.83
2018-04-29T02:25:05.938Z,16.57
2018-04-29T02:27:33.398Z,21.27
2018-04-29T02:30:01.655Z,17.50
2018-04-29T02:32:29.177Z,16.97
2018-04-29T02:34:56.666Z,19.77
2018-04-29T02:37:27.735Z,18.07
2018-04-29T02:39:55.228Z,15.23
2018-04-29T02:42:22.724Z,14.53
2018-04-29T02:44:50.192Z,15.73
2018-04-29T02:47:18.433Z,17.50
2018-04-29T02:49:45.918Z,16.80
2018-04-29T02:52:13.406Z,19.40
2018-04-29T02:54:40.897Z,17.63
2018-04-29T02:57:08.361Z,18.87
2018-04-29T02:59:35.845Z,18.27
2018-04-29T03:02:03.302Z,19.40
2018-04-29T03:04:30.816Z,18.23
2018-04-29T03:06:58.304Z,17.67
2018-04-29T03:09:25.805Z,15.83
2018-04-29T03:11:53.291Z,15.00
2018-04-29T03:14:20.752Z,16.40
2018-04-29T03:16:48.224Z,17.00
2018-04-29T03:19:15.714Z,16.17
2018-04-29T03:21:43.971Z,19.27
2018-04-29T03:24:11.440Z,16.27
2018-04-29T03:26:38.947Z,16.70
2018-04-29T03:29:06.415Z,17.30
2018-04-29T03:31:33.897Z,17.03
2018-04-29T03:34:01.374Z,18.43
2018-04-29T03:36:29.596Z,17.33
2018-04-29T03:38:57.056Z,17.37
2018-04-29T03:41:24.540Z,18.43
2018-04-29T03:43:52.023Z,18.10
2018-04-29T03:46:20.267Z,17.30
2018-04-29T03:48:47.704Z,17.37
2018-04-29T03:51:15.204Z,17.43
2018-04-29T03:53:42.684Z,17.50
2018-04-29T03:56:10.861Z,20.43
2018-04-29T03:58:50.169Z,19.57
2018-04-29T04:01:30.122Z,16.97
2018-04-29T04:03:59.279Z,16.60
2018-04-29T04:06:27.079Z,21.97
2018-04-29T04:08:54.548Z,19.60
2018-04-29T04:11:22.809Z,15.93
2018-04-29T04:13:50.560Z,20.00
2018-04-29T04:16:18.041Z,21.70
2018-04-29T04:18:45.536Z,17.73
2018-04-29T04:21:13.016Z,18.80
2018-04-29T04:23:40.569Z,20.60
2018-04-29T04:26:07.967Z,25.13
2018-04-29T04:28:36.204Z,20.97
2018-04-29T04:31:03.660Z,22.87
2018-04-29T04:33:31.149Z,22.93
2018-04-29T04:35:58.618Z,26.10
2018-04-29T04:38:26.872Z,26.90
2018-04-29T04:40:55.129Z,23.57
2018-04-29T04:43:22.585Z,22.27
2018-04-29T04:45:50.093Z,23.03
2018-04-29T04:48:17.579Z,20.50
2018-04-29T04:50:45.089Z,21.37
2018-04-29T04:53:12.527Z,20.60
2018-04-29T04:55:40.032Z,20.20
2018-04-29T04:58:07.572Z,21.00
2018-04-29T05:00:34.995Z,21.47
2018-04-29T05:03:02.501Z,23.37
2018-04-29T05:05:30.008Z,19.77
2018-04-29T05:07:57.495Z,22.80
2018-04-29T05:10:24.952Z,20.63
2018-04-29T05:12:52.437Z,22.67
2018-04-29T05:15:19.918Z,21.23
2018-04-29T05:17:47.418Z,20.03
2018-04-29T05:20:14.875Z,22.37
2018-04-29T05:22:42.356Z,20.00
2018-04-29T05:25:10.583Z,20.97
2018-04-29T05:27:38.078Z,24.00
2018-04-29T05:30:05.589Z,21.77
2018-04-29T05:32:33.053Z,24.50
2018-04-29T05:35:00.548Z,24.97
2018-04-29T05:37:28.008Z,27.23
2018-04-29T05:39:56.260Z,29.70
2018-04-29T05:42:23.727Z,27.20
2018-04-29T05:44:51.230Z,27.73
2018-04-29T05:47:18.690Z,25.73
2018-04-29T05:49:46.253Z,24.97
2018-04-29T05:52:13.680Z,27.90
2018-04-29T05:54:41.946Z,27.13
2018-04-29T05:57:09.404Z,30.80
2018-04-29T05:59:37.665Z,27.63
2018-04-29T06:02:05.146Z,27.80
2018-04-29T06:04:33.370Z,31.10
2018-04-29T06:07:00.836Z,34.60
2018-04-29T06:09:29.097Z,29.13
2018-04-29T06:11:56.576Z,31.33
2018-04-29T06:14:24.333Z,34.23
2018-04-29T06:16:51.845Z,40.57
2018-04-29T06:19:19.300Z,34.93
2018-04-29T06:21:46.772Z,33.57
2018-04-29T06:24:14.274Z,32.37
2018-04-29T06:26:41.762Z,30.70
2018-04-29T06:29:10.012Z,31.13
2018-04-29T06:31:37.466Z,25.93
2018-04-29T06:34:04.955Z,21.57
2018-04-29T06:36:32.430Z,25.67
2018-04-29T06:38:59.915Z,21.20
2018-04-29T06:41:27.396Z,20.37
2018-04-29T06:43:54.884Z,18.93
2018-04-29T06:46:22.403Z,19.70
2018-04-29T06:48:49.861Z,17.73
2018-04-29T06:51:17.336Z,18.40
2018-04-29T06:53:44.795Z,21.20
2018-04-29T06:56:13.048Z,21.27
2018-04-29T06:58:40.568Z,19.23
2018-04-29T07:01:08.042Z,18.77
2018-04-29T07:03:35.535Z,18.73
2018-04-29T07:06:03.008Z,18.20
2018-04-29T07:08:31.252Z,17.40
2018-04-29T07:10:58.713Z,17.03
2018-04-29T07:13:26.173Z,17.47
2018-04-29T07:15:53.652Z,20.20
2018-04-29T07:18:21.148Z,21.03
2018-04-29T07:20:48.640Z,18.70
2018-04-29T07:23:16.096Z,18.47
2018-04-29T07:25:43.584Z,17.23
2018-04-29T07:28:11.832Z,17.17
2018-04-29T07:30:39.287Z,17.47
2018-04-29T07:33:06.766Z,17.43
2018-04-29T07:35:34.985Z,17.90
2018-04-29T07:38:02.491Z,19.17
2018-04-29T07:40:29.964Z,16.40
2018-04-29T07:42:57.460Z,14.50
2018-04-29T07:45:24.927Z,16.77
2018-04-29T07:47:52.384Z,14.87
2018-04-29T07:50:19.871Z,14.60
2018-04-29T07:52:47.326Z,13.33
2018-04-29T07:55:14.817Z,16.10
2018-04-29T07:57:43.037Z,13.83
2018-04-29T08:00:10.516Z,15.90
2018-04-29T08:02:37.990Z,13.77
2018-04-29T08:05:06.254Z,12.93
2018-04-29T08:07:33.738Z,17.80
2018-04-29T08:10:02.000Z,16.23
2018-04-29T08:12:30.227Z,15.10
2018-04-29T08:14:57.724Z,16.63
2018-04-29T08:17:25.205Z,20.10
2018-04-29T08:19:53.429Z,15.27
2018-04-29T08:22:20.916Z,17.67
2018-04-29T08:24:49.153Z,14.50
2018-04-29T08:27:16.644Z,14.93
2018-04-29T08:29:44.116Z,15.47
2018-04-29T08:32:12.446Z,16.97
2018-04-29T08:34:39.941Z,13.20
2018-04-29T08:37:07.405Z,16.27
2018-04-29T08:39:34.910Z,12.43
2018-04-29T08:42:02.369Z,13.10
2018-04-29T08:44:29.847Z,11.00
2018-04-29T08:46:57.346Z,16.13
2018-04-29T08:49:25.613Z,14.70
2018-04-29T08:51:53.077Z,13.90
2018-04-29T08:54:21.329Z,14.30
2018-04-29T08:56:48.820Z,12.50
2018-04-29T08:59:17.071Z,13.17
2018-04-29T09:01:44.566Z,12.93
2018-04-29T09:04:12.042Z,11.83
2018-04-29T09:06:39.503Z,12.50
2018-04-29T09:09:07.017Z,12.30
2018-04-29T09:11:35.251Z,12.27
2018-04-29T09:14:02.716Z,12.43
2018-04-29T09:16:30.208Z,17.07
2018-04-29T09:18:57.676Z,13.23
2018-04-29T09:21:25.166Z,11.43
2018-04-29T09:23:52.703Z,12.30
2018-04-29T09:26:20.174Z,12.70
2018-04-29T09:28:47.675Z,10.60
2018-04-29T09:31:15.152Z,11.63
2018-04-29T09:33:43.396Z,12.67
2018-04-29T09:36:10.858Z,11.50
2018-04-29T09:38:38.348Z,13.67
2018-04-29T09:41:05.904Z,11.73
2018-04-29T09:43:33.378Z,10.37
2018-04-29T09:46:00.841Z,13.30
2018-04-29T09:48:28.300Z,11.50
2018-04-29T09:50:55.786Z,10.70
2018-04-29T09:53:23.243Z,13.07
2018-04-29T09:55:50.748Z,11.47
2018-04-29T09:58:18.217Z,12.03
2018-04-29T10:00:50.520Z,10.83
2018-04-29T10:03:19.952Z,12.83
2018-04-29T10:05:47.428Z,12.30
2018-04-29T10:08:15.668Z,10.90
2018-04-29T10:10:43.165Z,12.70
2018-04-29T10:13:10.628Z,12.40
2018-04-29T10:15:38.129Z,11.10
2018-04-29T10:18:05.635Z,12.43
2018-04-29T10:20:33.917Z,11.47
2018-04-29T10:23:02.171Z,12.37
2018-04-29T10:25:29.632Z,12.47
2018-04-29T10:27:57.882Z,11.13
2018-04-29T10:30:25.356Z,11.40
2018-04-29T10:32:52.910Z,12.10
2018-04-29T10:35:20.317Z,12.43
2018-04-29T10:37:47.808Z,13.63
2018-04-29T10:40:15.265Z,12.53
2018-04-29T10:42:42.760Z,10.77
2018-04-29T10:45:11.000Z,12.00
2018-04-29T10:47:38.469Z,11.13
2018-04-29T10:50:05.968Z,13.70
2018-04-29T10:52:33.492Z,13.53
2018-04-29T10:55:00.907Z,9.50
2018-04-29T10:57:29.309Z,13.63
2018-04-29T10:59:56.784Z,11.07
2018-04-29T11:02:24.260Z,11.50
2018-04-29T11:04:51.735Z,18.90
2018-04-29T11:07:19.240Z,11.37
2018-04-29T11:09:46.748Z,11.33
2018-04-29T11:12:14.204Z,12.47
2018-04-29T11:14:41.707Z,11.90
2018-04-29T11:17:09.172Z,12.23
2018-04-29T11:19:36.660Z,11.20
2018-04-29T11:22:04.163Z,11.73
2018-04-29T11:24:32.389Z,9.50
2018-04-29T11:26:59.845Z,11.37
2018-04-29T11:29:27.365Z,10.60
2018-04-29T11:31:54.808Z,9.27
2018-04-29T11:34:22.257Z,11.17
2018-04-29T11:36:49.770Z,9.37
2018-04-29T11:39:18.013Z,8.63
2018-04-29T11:41:45.509Z,10.83
2018-04-29T11:44:12.992Z,10.00
2018-04-29T11:46:40.454Z,9.90
2018-04-29T11:49:07.924Z,11.43
2018-04-29T11:51:35.400Z,10.33
2018-04-29T11:54:02.876Z,10.67
2018-04-29T11:56:30.343Z,11.67
2018-04-29T11:58:57.847Z,11.10
2018-04-29T12:01:25.308Z,11.87
2018-04-29T12:03:52.760Z,8.20
2018-04-29T12:06:20.261Z,13.40
2018-04-29T12:08:48.499Z,10.63
2018-04-29T12:11:16.012Z,11.50
2018-04-29T12:13:43.540Z,10.30
2018-04-29T12:16:11.017Z,9.47
2018-04-29T12:18:39.293Z,12.73
2018-04-29T12:21:06.763Z,10.47
2018-04-29T12:23:34.261Z,9.63
2018-04-29T12:26:01.867Z,11.37
2018-04-29T12:28:29.335Z,10.63
2018-04-29T12:30:57.580Z,11.60
2018-04-29T12:33:25.069Z,10.17
2018-04-29T12:35:52.556Z,9.67
2018-04-29T12:38:20.025Z,12.03
2018-04-29T12:40:47.505Z,10.73
2018-04-29T12:43:14.992Z,11.30
2018-04-29T12:45:42.485Z,14.00
2018-04-29T12:48:10.825Z,14.50
2018-04-29T12:50:38.279Z,11.47
2018-04-29T12:53:06.667Z,13.23
2018-04-29T12:55:34.123Z,16.47
2018-04-29T12:58:02.372Z,10.80
2018-04-29T13:00:29.869Z,11.00
2018-04-29T13:02:58.276Z,10.80
2018-04-29T13:05:25.879Z,12.47
2018-04-29T13:07:53.360Z,12.60
2018-04-29T13:10:20.825Z,13.47
2018-04-29T13:12:49.057Z,14.10
2018-04-29T13:15:16.576Z,10.93
2018-04-29T13:17:44.056Z,14.30
2018-04-29T13:20:11.534Z,11.33
2018-04-29T13:22:38.988Z,9.73
2018-04-29T13:25:06.490Z,9.97
2018-04-29T13:27:34.907Z,12.07
2018-04-29T13:30:02.451Z,9.90
2018-04-29T13:32:29.901Z,11.93
2018-04-29T13:34:57.356Z,11.70
2018-04-29T13:37:24.847Z,13.67
2018-04-29T13:39:52.312Z,12.43
2018-04-29T13:42:20.029Z,11.87
2018-04-29T13:44:47.439Z,11.80
2018-04-29T13:47:14.900Z,12.40
2018-04-29T13:49:42.351Z,12.57
2018-04-29T13:52:09.875Z,12.87
2018-04-29T13:54:37.368Z,16.33
2018-04-29T13:57:04.829Z,12.07
2018-04-29T13:59:32.304Z,14.03
2018-04-29T14:01:59.803Z,12.53
2018-04-29T14:04:27.277Z,11.33
2018-04-29T14:06:54.727Z,14.83
2018-04-29T14:09:22.290Z,13.13
2018-04-29T14:11:49.753Z,12.20
2018-04-29T14:14:17.292Z,14.10
2018-04-29T14:16:44.773Z,14.27
2018-04-29T14:19:12.232Z,13.47
2018-04-29T14:21:39.740Z,13.97
2018-04-29T14:24:07.250Z,12.83
2018-04-29T14:26:34.757Z,12.43
2018-04-29T14:29:02.260Z,13.13
2018-04-29T14:31:30.492Z,12.67
2018-04-29T14:33:57.999Z,14.23
2018-04-29T14:36:25.459Z,12.63
2018-04-29T14:38:52.920Z,12.97
2018-04-29T14:41:20.418Z,12.60
2018-04-29T14:43:48.672Z,13.03
2018-04-29T14:46:16.152Z,12.97
2018-04-29T14:48:43.612Z,14.53
2018-04-29T14:51:11.093Z,15.57
2018-04-29T14:53:38.568Z,14.63
2018-04-29T14:56:06.147Z,18.50
2018-04-29T14:58:33.496Z,16.33
2018-04-29T15:01:00.990Z,15.80
2018-04-29T15:03:28.460Z,16.93
2018-04-29T15:05:55.923Z,16.83
2018-04-29T15:08:23.402Z,19.03
2018-04-29T15:10:50.877Z,20.87
2018-04-29T15:13:18.720Z,20.37
2018-04-29T15:15:46.199Z,20.00
2018-04-29T15:18:25.401Z,19.73
2018-04-29T15:20:52.896Z,22.40
2018-04-29T15:23:20.356Z,23.30
2018-04-29T15:25:47.894Z,22.60
2018-04-29T15:28:15.325Z,21.37
2018-04-29T15:30:42.811Z,21.13
2018-04-29T15:33:10.261Z,22.07
2018-04-29T15:35:37.756Z,21.20
2018-04-29T15:38:05.213Z,21.63
2018-04-29T15:40:32.673Z,22.27
2018-04-29T15:43:00.159Z,20.77
2018-04-29T15:45:27.672Z,21.10
2018-04-29T15:47:55.248Z,21.80
2018-04-29T15:50:22.703Z,19.67
2018-04-29T15:52:50.168Z,23.90
2018-04-29T15:55:18.456Z,18.00
2018-04-29T15:57:46.703Z,19.10
2018-04-29T16:00:14.272Z,19.43
2018-04-29T16:02:41.875Z,19.10
2018-04-29T16:05:09.343Z,17.80
2018-04-29T16:07:36.820Z,19.93
2018-04-29T16:10:04.308Z,19.67
2018-04-29T16:12:31.766Z,17.03
2018-04-29T16:14:59.272Z,19.17
2018-04-29T16:17:26.927Z,17.23
2018-04-29T16:19:54.407Z,23.03
2018-04-29T16:22:22.160Z,20.63
2018-04-29T16:24:49.647Z,21.70
2018-04-29T16:27:17.111Z,20.03
2018-04-29T16:29:44.596Z,21.37
2018-04-29T16:32:12.075Z,22.80
2018-04-29T16:34:39.532Z,26.37
2018-04-29T16:37:07.011Z,25.07
2018-04-29T16:39:34.472Z,25.53
2018-04-29T16:42:01.955Z,22.27
2018-04-29T16:44:29.446Z,22.17
2018-04-29T16:46:57.701Z,24.10
2018-04-29T16:49:25.939Z,25.43
2018-04-29T16:51:53.423Z,27.53
2018-04-29T16:54:21.037Z,26.07
2018-04-29T16:56:48.504Z,27.87
2018-04-29T16:59:16.007Z,27.63
2018-04-29T17:01:43.477Z,28.00
2018-04-29T17:04:10.984Z,23.87
2018-04-29T17:06:38.472Z,25.87
2018-04-29T17:09:05.985Z,24.33
2018-04-29T17:11:33.491Z,25.63
2018-04-29T17:14:01.313Z,26.37
2018-04-29T17:16:28.764Z,24.13
2018-04-29T17:18:56.256Z,24.87
2018-04-29T17:21:23.748Z,27.80
2018-04-29T17:23:51.256Z,28.67
2018-04-29T17:26:18.758Z,25.77
2018-04-29T17:28:47.007Z,26.03
2018-04-29T17:31:14.468Z,26.47
2018-04-29T17:33:41.948Z,24.67
2018-04-29T17:36:11.178Z,28.33
2018-04-29T17:38:38.646Z,27.93
2018-04-29T17:41:06.160Z,28.27
2018-04-29T17:43:34.430Z,24.83
2018-04-29T17:46:02.707Z,27.03
2018-04-29T17:48:30.932Z,33.60
2018-04-29T17:50:58.404Z,26.77
2018-04-29T17:53:25.902Z,28.63
2018-04-29T17:55:54.175Z,30.57
2018-04-29T17:58:22.416Z,27.67
2018-04-29T18:00:49.882Z,29.53
2018-04-29T18:03:17.375Z,28.43
2018-04-29T18:05:45.603Z,28.73
2018-04-29T18:08:13.105Z,30.13
2018-04-29T18:10:41.353Z,29.90
2018-04-29T18:13:09.196Z,33.03
2018-04-29T18:15:36.664Z,31.67
2018-04-29T18:18:04.162Z,30.07
2018-04-29T18:20:32.420Z,29.37
2018-04-29T18:23:00.668Z,29.30
2018-04-29T18:25:28.124Z,28.40
2018-04-29T18:27:55.620Z,36.40
2018-04-29T18:30:23.883Z,29.80
2018-04-29T18:32:51.388Z,31.70
2018-04-29T18:35:18.845Z,34.03
2018-04-29T18:37:46.336Z,31.90
2018-04-29T18:40:13.808Z,32.07
2018-04-29T18:42:41.304Z,29.90
2018-04-29T18:45:08.764Z,31.47
2018-04-29T18:47:36.225Z,27.67
2018-04-29T18:50:03.705Z,30.90
2018-04-29T18:52:31.172Z,29.23
2018-04-29T18:54:58.664Z,31.00
2018-04-29T18:57:26.124Z,29.73
2018-04-29T18:59:54.377Z,31.83
2018-04-29T19:02:21.848Z,30.40
2018-04-29T19:04:49.353Z,29.27
2018-04-29T19:07:17.550Z,30.80
2018-04-29T19:09:45.061Z,29.23
2018-04-29T19:12:13.340Z,29.37
2018-04-29T19:14:41.605Z,28.77
2018-04-29T19:17:09.072Z,29.73
2018-04-29T19:19:36.558Z,29.43
2018-04-29T19:22:04.020Z,29.67
2018-04-29T19:24:31.505Z,32.30
2018-04-29T19:26:59.838Z,29.90
2018-04-29T19:29:27.309Z,29.87
2018-04-29T19:31:54.791Z,29.20
2018-04-29T19:34:22.273Z,32.47
2018-04-29T19:36:50.489Z,29.73
2018-04-29T19:39:17.988Z,34.00
2018-04-29T19:41:45.456Z,31.33
2018-04-29T19:44:12.951Z,30.13
2018-04-29T19:46:40.479Z,34.40
2018-04-29T19:49:07.953Z,32.57
2018-04-29T19:51:35.433Z,32.97
2018-04-29T19:54:02.889Z,34.97
2018-04-29T19:56:30.383Z,32.73
2018-04-29T19:58:57.853Z,35.73
2018-04-29T20:01:25.343Z,34.30
2018-04-29T20:03:52.800Z,33.37
2018-04-29T20:06:20.317Z,34.07
2018-04-29T20:08:47.803Z,32.27
2018-04-29T20:11:15.272Z,34.17
2018-04-29T20:13:42.808Z,36.57
2018-04-29T20:16:10.303Z,39.63
2018-04-29T20:18:37.771Z,40.10
2018-04-29T20:21:05.279Z,36.50
2018-04-29T20:23:32.785Z,39.37
2018-04-29T20:26:00.291Z,37.00
2018-04-29T20:28:28.625Z,31.53
2018-04-29T20:30:56.122Z,33.57
2018-04-29T20:33:23.608Z,35.90
2018-04-29T20:35:51.832Z,36.97
2018-04-29T20:38:19.315Z,34.13
2018-04-29T20:40:46.771Z,34.17
2018-04-29T20:43:14.280Z,35.50
2018-04-29T20:45:41.749Z,35.83
2018-04-29T20:48:09.214Z,36.87
2018-04-29T20:50:36.700Z,33.70
2018-04-29T20:53:04.182Z,36.37
2018-04-29T20:55:32.436Z,37.73
2018-04-29T20:57:59.895Z,32.40
2018-04-29T21:00:27.371Z,42.10
2018-04-29T21:02:54.829Z,38.37
2018-04-29T21:05:23.109Z,36.53
2018-04-29T21:07:50.573Z,35.37
2018-04-29T21:10:18.052Z,40.93
2018-04-29T21:12:45.515Z,34.10
2018-04-29T21:15:13.007Z,34.97
2018-04-29T21:17:40.520Z,40.07
2018-04-29T21:20:07.990Z,38.37
2018-04-29T21:22:35.464Z,35.03
2018-04-29T21:25:03.716Z,39.67
2018-04-29T21:27:31.172Z,36.63
2018-04-29T21:29:58.628Z,38.30
2018-04-29T21:32:26.104Z,37.50
2018-04-29T21:34:53.597Z,37.83
2018-04-29T21:37:21.817Z,39.93
2018-04-29T21:39:49.265Z,39.30
2018-04-29T21:42:16.788Z,38.07
2018-04-29T21:44:45.015Z,40.03
2018-04-29T21:47:12.528Z,39.37
2018-04-29T21:49:39.992Z,37.13
2018-04-29T21:52:07.494Z,40.17
2018-04-29T21:54:34.997Z,36.00
2018-04-29T21:57:02.465Z,39.57
2018-04-29T21:59:29.964Z,34.40
2018-04-29T22:01:57.432Z,41.93
2018-04-29T22:04:24.932Z,41.10
2018-04-29T22:06:53.179Z,37.80
2018-04-29T22:09:20.632Z,36.67
2018-04-29T22:11:48.131Z,41.63
2018-04-29T22:14:15.615Z,38.83
2018-04-29T22:16:43.088Z,41.90
2018-04-29T22:19:10.573Z,38.33
2018-04-29T22:21:38.088Z,37.43
2018-04-29T22:24:05.564Z,40.10
2018-04-29T22:26:33.016Z,39.33
2018-04-29T22:29:00.485Z,37.83
2018-04-29T22:31:28.011Z,38.80
2018-04-29T22:33:55.488Z,36.70
2018-04-29T22:36:23.751Z,37.00
2018-04-29T22:38:51.221Z,35.13
2018-04-29T22:41:18.688Z,33.27
2018-04-29T22:43:46.948Z,31.40
2018-04-29T22:46:14.438Z,35.67
2018-04-29T22:48:41.930Z,35.03
2018-04-29T22:51:09.399Z,37.13
2018-04-29T22:53:36.890Z,34.70
2018-04-29T22:56:04.343Z,34.90
2018-04-29T22:58:31.808Z,32.20
2018-04-29T23:00:59.275Z,35.67
2018-04-29T23:03:26.732Z,32.10
2018-04-29T23:05:54.223Z,33.50
2018-04-29T23:08:21.680Z,34.53
2018-04-29T23:10:49.935Z,37.07
2018-04-29T23:13:17.388Z,36.20
2018-04-29T23:15:44.885Z,30.53
2018-04-29T23:18:12.352Z,36.20
2018-04-29T23:20:39.823Z,36.70
2018-04-29T23:23:07.317Z,37.70
2018-04-29T23:25:34.817Z,32.50
2018-04-29T23:28:02.301Z,30.53
2018-04-29T23:30:29.780Z,32.80
2018-04-29T23:32:57.250Z,32.43
2018-04-29T23:35:24.795Z,31.60
2018-04-29T23:37:52.228Z,33.80
2018-04-29T23:40:20.605Z,32.53
2018-04-29T23:42:48.080Z,29.87
2018-04-29T23:45:15.561Z,30.27
2018-04-29T23:47:43.043Z,29.30
2018-04-29T23:50:11.279Z,28.07
2018-04-29T23:52:38.737Z,29.23
2018-04-29T23:55:06.234Z,29.10
2018-04-29T23:57:35.378Z,29.67
